sensor_id;sensor_type;location;lat;lon;timestamp;P1;durP1;ratioP1;P2;durP2;ratioP2
59093;SDS011;44880;52.814;18.270;2023-03-01T00:01:50;45.30;;;22.50;;
59093;SDS011;44880;52.814;18.270;2023-03-01T00:04:20;38.50;;;19.60;;
59093;SDS011;44880;52.814;18.270;2023-03-01T00:06:49;38.90;;;20.10;;
59093;SDS011;44880;52.814;18.270;2023-03-01T00:09:19;37.00;;;20.00;;
59093;SDS011;44880;52.814;18.270;2023-03-01T00:11:48;43.80;;;20.90;;
59093;SDS011;44880;52.814;18.270;2023-03-01T00:14:18;40.40;;;20.90;;
59093;SDS011;44880;52.814;18.270;2023-03-01T00:16:54;37.80;;;19.40;;
59093;SDS011;44880;52.814;18.270;2023-03-01T00:19:57;43.10;;;22.40;;
59093;SDS011;44880;52.814;18.270;2023-03-01T00:22:27;43.20;;;21.90;;
59093;SDS011;44880;52.814;18.270;2023-03-01T00:24:56;42.20;;;21.40;;
59093;SDS011;44880;52.814;18.270;2023-03-01T00:27:26;48.60;;;23.50;;
59093;SDS011;44880;52.814;18.270;2023-03-01T00:29:55;51.40;;;25.60;;
59093;SDS011;44880;52.814;18.270;2023-03-01T00:32:25;50.30;;;24.70;;
59093;SDS011;44880;52.814;18.270;2023-03-01T00:34:54;48.50;;;23.60;;
59093;SDS011;44880;52.814;18.270;2023-03-01T00:37:24;42.50;;;22.00;;
59093;SDS011;44880;52.814;18.270;2023-03-01T00:39:53;44.90;;;22.00;;
59093;SDS011;44880;52.814;18.270;2023-03-01T00:42:23;45.70;;;22.40;;
59093;SDS011;44880;52.814;18.270;2023-03-01T00:44:53;48.70;;;23.60;;
59093;SDS011;44880;52.814;18.270;2023-03-01T00:47:22;50.00;;;23.80;;
59093;SDS011;44880;52.814;18.270;2023-03-01T00:49:52;49.70;;;23.90;;
59093;SDS011;44880;52.814;18.270;2023-03-01T00:52:22;54.60;;;25.70;;
59093;SDS011;44880;52.814;18.270;2023-03-01T00:54:53;45.70;;;24.40;;
59093;SDS011;44880;52.814;18.270;2023-03-01T00:57:22;42.60;;;20.80;;
59093;SDS011;44880;52.814;18.270;2023-03-01T00:59:51;45.80;;;22.00;;
59093;SDS011;44880;52.814;18.270;2023-03-01T01:02:21;44.10;;;20.90;;
59093;SDS011;44880;52.814;18.270;2023-03-01T01:04:51;41.90;;;21.40;;
59093;SDS011;44880;52.814;18.270;2023-03-01T01:07:21;43.10;;;22.30;;
59093;SDS011;44880;52.814;18.270;2023-03-01T01:09:50;42.60;;;21.50;;
59093;SDS011;44880;52.814;18.270;2023-03-01T01:12:19;51.10;;;24.30;;
59093;SDS011;44880;52.814;18.270;2023-03-01T01:14:49;44.90;;;22.80;;
59093;SDS011;44880;52.814;18.270;2023-03-01T01:17:19;48.20;;;23.00;;
59093;SDS011;44880;52.814;18.270;2023-03-01T01:19:48;42.70;;;20.70;;
59093;SDS011;44880;52.814;18.270;2023-03-01T01:22:18;42.90;;;22.60;;
59093;SDS011;44880;52.814;18.270;2023-03-01T01:24:47;59.10;;;26.50;;
59093;SDS011;44880;52.814;18.270;2023-03-01T01:27:16;48.60;;;24.30;;
59093;SDS011;44880;52.814;18.270;2023-03-01T01:29:45;43.50;;;21.20;;
59093;SDS011;44880;52.814;18.270;2023-03-01T01:32:15;45.10;;;21.00;;
59093;SDS011;44880;52.814;18.270;2023-03-01T01:34:44;40.80;;;20.50;;
59093;SDS011;44880;52.814;18.270;2023-03-01T01:37:14;45.10;;;21.20;;
59093;SDS011;44880;52.814;18.270;2023-03-01T01:39:43;42.70;;;21.70;;
59093;SDS011;44880;52.814;18.270;2023-03-01T01:42:13;41.20;;;21.50;;
59093;SDS011;44880;52.814;18.270;2023-03-01T01:44:46;38.70;;;19.70;;
59093;SDS011;44880;52.814;18.270;2023-03-01T01:47:16;41.30;;;21.30;;
59093;SDS011;44880;52.814;18.270;2023-03-01T01:49:48;43.10;;;21.90;;
59093;SDS011;44880;52.814;18.270;2023-03-01T01:52:20;44.10;;;21.50;;
59093;SDS011;44880;52.814;18.270;2023-03-01T01:54:53;41.70;;;20.30;;
59093;SDS011;44880;52.814;18.270;2023-03-01T01:57:25;42.50;;;21.10;;
59093;SDS011;44880;52.814;18.270;2023-03-01T01:59:57;37.10;;;19.00;;
59093;SDS011;44880;52.814;18.270;2023-03-01T02:05:05;39.50;;;20.10;;
59093;SDS011;44880;52.814;18.270;2023-03-01T02:08:14;44.10;;;19.60;;
59093;SDS011;44880;52.814;18.270;2023-03-01T02:10:45;40.50;;;20.20;;
59093;SDS011;44880;52.814;18.270;2023-03-01T02:13:15;42.90;;;21.20;;
59093;SDS011;44880;52.814;18.270;2023-03-01T02:15:44;43.60;;;22.10;;
59093;SDS011;44880;52.814;18.270;2023-03-01T02:18:16;47.80;;;22.70;;
59093;SDS011;44880;52.814;18.270;2023-03-01T02:20:50;47.20;;;22.10;;
59093;SDS011;44880;52.814;18.270;2023-03-01T02:23:27;49.70;;;25.00;;
59093;SDS011;44880;52.814;18.270;2023-03-01T02:26:00;47.70;;;22.50;;
59093;SDS011;44880;52.814;18.270;2023-03-01T02:28:34;44.60;;;20.50;;
59093;SDS011;44880;52.814;18.270;2023-03-01T02:31:05;43.60;;;22.40;;
59093;SDS011;44880;52.814;18.270;2023-03-01T02:33:53;51.90;;;22.10;;
59093;SDS011;44880;52.814;18.270;2023-03-01T02:36:24;43.50;;;21.30;;
59093;SDS011;44880;52.814;18.270;2023-03-01T02:38:57;42.70;;;22.10;;
59093;SDS011;44880;52.814;18.270;2023-03-01T02:41:27;46.10;;;22.60;;
59093;SDS011;44880;52.814;18.270;2023-03-01T02:44:02;41.60;;;22.80;;
59093;SDS011;44880;52.814;18.270;2023-03-01T02:46:31;39.20;;;20.30;;
59093;SDS011;44880;52.814;18.270;2023-03-01T02:49:01;44.00;;;21.50;;
59093;SDS011;44880;52.814;18.270;2023-03-01T02:51:45;42.60;;;21.90;;
59093;SDS011;44880;52.814;18.270;2023-03-01T02:54:23;41.30;;;21.10;;
59093;SDS011;44880;52.814;18.270;2023-03-01T02:56:55;47.10;;;22.50;;
59093;SDS011;44880;52.814;18.270;2023-03-01T02:59:28;52.90;;;25.10;;
59093;SDS011;44880;52.814;18.270;2023-03-01T03:02:01;56.70;;;26.50;;
59093;SDS011;44880;52.814;18.270;2023-03-01T03:04:30;49.30;;;25.00;;
59093;SDS011;44880;52.814;18.270;2023-03-01T03:06:59;46.30;;;25.20;;
59093;SDS011;44880;52.814;18.270;2023-03-01T03:09:29;49.40;;;23.20;;
59093;SDS011;44880;52.814;18.270;2023-03-01T03:11:58;41.60;;;21.10;;
59093;SDS011;44880;52.814;18.270;2023-03-01T03:14:27;44.00;;;22.50;;
59093;SDS011;44880;52.814;18.270;2023-03-01T03:16:56;41.20;;;21.10;;
59093;SDS011;44880;52.814;18.270;2023-03-01T03:19:26;43.20;;;21.40;;
59093;SDS011;44880;52.814;18.270;2023-03-01T03:21:55;43.20;;;21.90;;
59093;SDS011;44880;52.814;18.270;2023-03-01T03:24:25;41.40;;;20.80;;
59093;SDS011;44880;52.814;18.270;2023-03-01T03:27:05;50.60;;;22.10;;
59093;SDS011;44880;52.814;18.270;2023-03-01T03:29:34;40.20;;;20.40;;
59093;SDS011;44880;52.814;18.270;2023-03-01T03:32:04;46.40;;;23.20;;
59093;SDS011;44880;52.814;18.270;2023-03-01T03:34:34;49.90;;;25.80;;
59093;SDS011;44880;52.814;18.270;2023-03-01T03:37:03;52.20;;;24.90;;
59093;SDS011;44880;52.814;18.270;2023-03-01T03:39:52;48.10;;;25.00;;
59093;SDS011;44880;52.814;18.270;2023-03-01T03:42:21;43.80;;;23.60;;
59093;SDS011;44880;52.814;18.270;2023-03-01T03:44:51;45.40;;;23.30;;
59093;SDS011;44880;52.814;18.270;2023-03-01T03:47:20;42.10;;;22.20;;
59093;SDS011;44880;52.814;18.270;2023-03-01T03:49:52;40.10;;;22.60;;
59093;SDS011;44880;52.814;18.270;2023-03-01T03:54:49;39.90;;;20.10;;
59093;SDS011;44880;52.814;18.270;2023-03-01T03:57:18;43.10;;;22.10;;
59093;SDS011;44880;52.814;18.270;2023-03-01T03:59:48;46.10;;;22.20;;
59093;SDS011;44880;52.814;18.270;2023-03-01T04:02:17;48.00;;;23.30;;
59093;SDS011;44880;52.814;18.270;2023-03-01T04:04:49;61.20;;;27.20;;
59093;SDS011;44880;52.814;18.270;2023-03-01T04:07:18;56.50;;;26.00;;
59093;SDS011;44880;52.814;18.270;2023-03-01T04:09:47;47.00;;;22.20;;
59093;SDS011;44880;52.814;18.270;2023-03-01T04:12:16;45.30;;;20.30;;
59093;SDS011;44880;52.814;18.270;2023-03-01T04:14:50;39.80;;;18.30;;
59093;SDS011;44880;52.814;18.270;2023-03-01T04:17:19;43.40;;;20.20;;
59093;SDS011;44880;52.814;18.270;2023-03-01T04:19:48;40.80;;;18.60;;
59093;SDS011;44880;52.814;18.270;2023-03-01T04:22:17;39.10;;;18.90;;
59093;SDS011;44880;52.814;18.270;2023-03-01T04:24:47;34.70;;;17.60;;
59093;SDS011;44880;52.814;18.270;2023-03-01T04:27:16;40.10;;;19.00;;
59093;SDS011;44880;52.814;18.270;2023-03-01T04:29:45;37.20;;;19.60;;
59093;SDS011;44880;52.814;18.270;2023-03-01T04:32:15;39.90;;;19.50;;
59093;SDS011;44880;52.814;18.270;2023-03-01T04:34:45;49.00;;;22.20;;
59093;SDS011;44880;52.814;18.270;2023-03-01T04:37:14;41.40;;;19.90;;
59093;SDS011;44880;52.814;18.270;2023-03-01T04:39:44;45.40;;;20.50;;
59093;SDS011;44880;52.814;18.270;2023-03-01T04:42:15;38.90;;;18.60;;
59093;SDS011;44880;52.814;18.270;2023-03-01T04:44:44;36.40;;;19.30;;
59093;SDS011;44880;52.814;18.270;2023-03-01T04:47:14;45.20;;;21.30;;
59093;SDS011;44880;52.814;18.270;2023-03-01T04:49:43;43.20;;;22.50;;
59093;SDS011;44880;52.814;18.270;2023-03-01T04:52:12;44.40;;;20.60;;
59093;SDS011;44880;52.814;18.270;2023-03-01T04:54:42;40.00;;;21.60;;
59093;SDS011;44880;52.814;18.270;2023-03-01T04:57:11;45.90;;;23.20;;
59093;SDS011;44880;52.814;18.270;2023-03-01T04:59:40;45.80;;;20.80;;
59093;SDS011;44880;52.814;18.270;2023-03-01T05:02:11;49.00;;;22.20;;
59093;SDS011;44880;52.814;18.270;2023-03-01T05:04:40;54.60;;;23.10;;
59093;SDS011;44880;52.814;18.270;2023-03-01T05:07:09;49.80;;;23.40;;
59093;SDS011;44880;52.814;18.270;2023-03-01T05:09:40;44.30;;;21.20;;
59093;SDS011;44880;52.814;18.270;2023-03-01T05:12:09;46.60;;;22.00;;
59093;SDS011;44880;52.814;18.270;2023-03-01T05:14:38;52.80;;;22.70;;
59093;SDS011;44880;52.814;18.270;2023-03-01T05:17:07;49.80;;;22.40;;
59093;SDS011;44880;52.814;18.270;2023-03-01T05:19:37;46.80;;;20.70;;
59093;SDS011;44880;52.814;18.270;2023-03-01T05:22:06;37.80;;;18.50;;
59093;SDS011;44880;52.814;18.270;2023-03-01T05:24:36;43.50;;;19.10;;
59093;SDS011;44880;52.814;18.270;2023-03-01T05:27:05;43.20;;;19.60;;
59093;SDS011;44880;52.814;18.270;2023-03-01T05:29:35;46.70;;;20.50;;
59093;SDS011;44880;52.814;18.270;2023-03-01T05:32:06;44.80;;;21.20;;
59093;SDS011;44880;52.814;18.270;2023-03-01T05:34:36;49.90;;;22.80;;
59093;SDS011;44880;52.814;18.270;2023-03-01T05:37:06;53.90;;;24.50;;
59093;SDS011;44880;52.814;18.270;2023-03-01T05:39:36;53.80;;;25.70;;
59093;SDS011;44880;52.814;18.270;2023-03-01T05:42:05;52.50;;;23.50;;
59093;SDS011;44880;52.814;18.270;2023-03-01T05:44:37;44.90;;;22.80;;
59093;SDS011;44880;52.814;18.270;2023-03-01T05:47:07;46.80;;;21.20;;
59093;SDS011;44880;52.814;18.270;2023-03-01T05:49:36;45.50;;;21.90;;
59093;SDS011;44880;52.814;18.270;2023-03-01T05:52:06;51.00;;;24.90;;
59093;SDS011;44880;52.814;18.270;2023-03-01T05:54:35;53.20;;;25.80;;
59093;SDS011;44880;52.814;18.270;2023-03-01T05:57:05;49.70;;;24.70;;
59093;SDS011;44880;52.814;18.270;2023-03-01T05:59:35;43.50;;;22.50;;
59093;SDS011;44880;52.814;18.270;2023-03-01T06:02:04;40.30;;;22.10;;
59093;SDS011;44880;52.814;18.270;2023-03-01T06:04:33;42.30;;;21.50;;
59093;SDS011;44880;52.814;18.270;2023-03-01T06:07:03;41.70;;;22.30;;
59093;SDS011;44880;52.814;18.270;2023-03-01T06:09:32;46.10;;;22.20;;
59093;SDS011;44880;52.814;18.270;2023-03-01T06:12:02;46.10;;;22.80;;
59093;SDS011;44880;52.814;18.270;2023-03-01T06:14:32;41.40;;;21.30;;
59093;SDS011;44880;52.814;18.270;2023-03-01T06:17:02;42.80;;;20.80;;
59093;SDS011;44880;52.814;18.270;2023-03-01T06:19:33;39.60;;;20.40;;
59093;SDS011;44880;52.814;18.270;2023-03-01T06:22:03;41.80;;;22.70;;
59093;SDS011;44880;52.814;18.270;2023-03-01T06:24:34;42.20;;;22.60;;
59093;SDS011;44880;52.814;18.270;2023-03-01T06:27:04;37.00;;;21.30;;
59093;SDS011;44880;52.814;18.270;2023-03-01T06:29:33;44.00;;;23.00;;
59093;SDS011;44880;52.814;18.270;2023-03-01T06:32:06;48.60;;;22.60;;
59093;SDS011;44880;52.814;18.270;2023-03-01T06:34:35;39.20;;;21.40;;
59093;SDS011;44880;52.814;18.270;2023-03-01T06:37:05;45.50;;;21.50;;
59093;SDS011;44880;52.814;18.270;2023-03-01T06:39:35;41.40;;;20.80;;
59093;SDS011;44880;52.814;18.270;2023-03-01T06:42:11;36.60;;;19.60;;
59093;SDS011;44880;52.814;18.270;2023-03-01T06:44:41;36.50;;;18.20;;
59093;SDS011;44880;52.814;18.270;2023-03-01T06:47:11;41.70;;;21.20;;
59093;SDS011;44880;52.814;18.270;2023-03-01T06:49:41;46.70;;;21.80;;
59093;SDS011;44880;52.814;18.270;2023-03-01T06:52:25;39.70;;;20.90;;
59093;SDS011;44880;52.814;18.270;2023-03-01T06:54:54;42.10;;;22.60;;
59093;SDS011;44880;52.814;18.270;2023-03-01T06:57:23;41.80;;;22.00;;
59093;SDS011;44880;52.814;18.270;2023-03-01T07:02:41;40.00;;;20.60;;
59093;SDS011;44880;52.814;18.270;2023-03-01T07:05:11;37.60;;;18.90;;
59093;SDS011;44880;52.814;18.270;2023-03-01T07:07:40;35.80;;;19.60;;
59093;SDS011;44880;52.814;18.270;2023-03-01T07:10:22;34.60;;;18.60;;
59093;SDS011;44880;52.814;18.270;2023-03-01T07:12:55;33.80;;;17.20;;
59093;SDS011;44880;52.814;18.270;2023-03-01T07:15:25;35.10;;;19.10;;
59093;SDS011;44880;52.814;18.270;2023-03-01T07:20:48;32.80;;;18.60;;
59093;SDS011;44880;52.814;18.270;2023-03-01T07:23:17;34.80;;;19.50;;
59093;SDS011;44880;52.814;18.270;2023-03-01T07:25:51;33.10;;;17.90;;
59093;SDS011;44880;52.814;18.270;2023-03-01T07:28:21;34.90;;;17.50;;
59093;SDS011;44880;52.814;18.270;2023-03-01T07:30:51;31.90;;;17.60;;
59093;SDS011;44880;52.814;18.270;2023-03-01T07:33:21;35.00;;;18.00;;
59093;SDS011;44880;52.814;18.270;2023-03-01T07:35:56;42.40;;;22.00;;
59093;SDS011;44880;52.814;18.270;2023-03-01T07:38:26;43.70;;;20.20;;
59093;SDS011;44880;52.814;18.270;2023-03-01T07:40:58;35.00;;;19.20;;
59093;SDS011;44880;52.814;18.270;2023-03-01T07:43:29;42.30;;;21.20;;
59093;SDS011;44880;52.814;18.270;2023-03-01T07:45:58;37.10;;;21.00;;
59093;SDS011;44880;52.814;18.270;2023-03-01T07:48:30;39.60;;;20.10;;
59093;SDS011;44880;52.814;18.270;2023-03-01T07:51:01;44.70;;;18.60;;
59093;SDS011;44880;52.814;18.270;2023-03-01T07:53:33;32.60;;;17.50;;
59093;SDS011;44880;52.814;18.270;2023-03-01T07:56:03;35.20;;;17.60;;
59093;SDS011;44880;52.814;18.270;2023-03-01T07:58:34;36.10;;;17.30;;
59093;SDS011;44880;52.814;18.270;2023-03-01T08:01:08;38.90;;;18.40;;
59093;SDS011;44880;52.814;18.270;2023-03-01T08:03:39;30.30;;;16.40;;
59093;SDS011;44880;52.814;18.270;2023-03-01T08:06:09;35.50;;;19.70;;
59093;SDS011;44880;52.814;18.270;2023-03-01T08:08:40;35.90;;;19.00;;
59093;SDS011;44880;52.814;18.270;2023-03-01T08:11:10;37.30;;;18.10;;
59093;SDS011;44880;52.814;18.270;2023-03-01T08:13:41;31.70;;;16.50;;
59093;SDS011;44880;52.814;18.270;2023-03-01T08:16:11;31.90;;;16.00;;
59093;SDS011;44880;52.814;18.270;2023-03-01T08:18:41;34.50;;;17.40;;
59093;SDS011;44880;52.814;18.270;2023-03-01T08:21:35;30.40;;;16.20;;
59093;SDS011;44880;52.814;18.270;2023-03-01T08:24:06;27.40;;;14.80;;
59093;SDS011;44880;52.814;18.270;2023-03-01T08:29:15;26.40;;;13.50;;
59093;SDS011;44880;52.814;18.270;2023-03-01T08:31:45;27.00;;;14.10;;
59093;SDS011;44880;52.814;18.270;2023-03-01T08:34:15;28.80;;;15.00;;
59093;SDS011;44880;52.814;18.270;2023-03-01T08:36:51;28.30;;;14.40;;
59093;SDS011;44880;52.814;18.270;2023-03-01T08:39:34;24.80;;;14.20;;
59093;SDS011;44880;52.814;18.270;2023-03-01T08:42:04;28.50;;;14.90;;
59093;SDS011;44880;52.814;18.270;2023-03-01T08:44:34;26.80;;;14.30;;
59093;SDS011;44880;52.814;18.270;2023-03-01T08:47:10;26.60;;;14.60;;
59093;SDS011;44880;52.814;18.270;2023-03-01T08:49:42;25.60;;;14.20;;
59093;SDS011;44880;52.814;18.270;2023-03-01T08:52:12;28.50;;;14.30;;
59093;SDS011;44880;52.814;18.270;2023-03-01T08:54:42;27.90;;;14.70;;
59093;SDS011;44880;52.814;18.270;2023-03-01T09:00:07;27.10;;;14.40;;
59093;SDS011;44880;52.814;18.270;2023-03-01T09:02:38;26.20;;;13.50;;
59093;SDS011;44880;52.814;18.270;2023-03-01T09:05:15;25.00;;;13.60;;
59093;SDS011;44880;52.814;18.270;2023-03-01T09:07:45;23.70;;;12.40;;
59093;SDS011;44880;52.814;18.270;2023-03-01T09:10:15;22.30;;;12.40;;
59093;SDS011;44880;52.814;18.270;2023-03-01T09:12:45;23.10;;;12.20;;
59093;SDS011;44880;52.814;18.270;2023-03-01T09:15:21;21.60;;;10.40;;
59093;SDS011;44880;52.814;18.270;2023-03-01T09:17:51;22.00;;;11.60;;
59093;SDS011;44880;52.814;18.270;2023-03-01T09:20:20;21.50;;;11.50;;
59093;SDS011;44880;52.814;18.270;2023-03-01T09:22:50;23.50;;;12.30;;
59093;SDS011;44880;52.814;18.270;2023-03-01T09:25:19;22.10;;;12.40;;
59093;SDS011;44880;52.814;18.270;2023-03-01T09:27:51;23.50;;;12.90;;
59093;SDS011;44880;52.814;18.270;2023-03-01T09:30:21;23.90;;;13.20;;
59093;SDS011;44880;52.814;18.270;2023-03-01T09:32:51;27.10;;;15.50;;
59093;SDS011;44880;52.814;18.270;2023-03-01T09:35:25;25.20;;;14.40;;
59093;SDS011;44880;52.814;18.270;2023-03-01T09:38:21;25.20;;;14.20;;
59093;SDS011;44880;52.814;18.270;2023-03-01T09:40:50;27.80;;;15.50;;
59093;SDS011;44880;52.814;18.270;2023-03-01T09:43:21;27.10;;;15.30;;
59093;SDS011;44880;52.814;18.270;2023-03-01T09:45:59;30.70;;;16.30;;
59093;SDS011;44880;52.814;18.270;2023-03-01T09:48:33;30.10;;;17.20;;
59093;SDS011;44880;52.814;18.270;2023-03-01T09:51:12;30.60;;;16.60;;
59093;SDS011;44880;52.814;18.270;2023-03-01T09:53:47;27.80;;;17.10;;
59093;SDS011;44880;52.814;18.270;2023-03-01T09:56:17;30.30;;;17.30;;
59093;SDS011;44880;52.814;18.270;2023-03-01T09:58:51;30.50;;;16.80;;
59093;SDS011;44880;52.814;18.270;2023-03-01T10:01:28;30.70;;;16.70;;
59093;SDS011;44880;52.814;18.270;2023-03-01T10:04:04;28.10;;;15.80;;
59093;SDS011;44880;52.814;18.270;2023-03-01T10:06:49;30.00;;;15.70;;
59093;SDS011;44880;52.814;18.270;2023-03-01T10:09:25;29.40;;;17.90;;
59093;SDS011;44880;52.814;18.270;2023-03-01T10:11:56;28.60;;;16.00;;
59093;SDS011;44880;52.814;18.270;2023-03-01T10:14:29;29.90;;;16.60;;
59093;SDS011;44880;52.814;18.270;2023-03-01T10:17:08;28.70;;;15.70;;
59093;SDS011;44880;52.814;18.270;2023-03-01T10:19:57;28.70;;;15.30;;
59093;SDS011;44880;52.814;18.270;2023-03-01T10:22:44;24.70;;;14.00;;
59093;SDS011;44880;52.814;18.270;2023-03-01T10:25:47;33.10;;;16.20;;
59093;SDS011;44880;52.814;18.270;2023-03-01T10:31:14;29.50;;;17.80;;
59093;SDS011;44880;52.814;18.270;2023-03-01T10:36:15;31.50;;;17.50;;
59093;SDS011;44880;52.814;18.270;2023-03-01T10:41:30;30.70;;;17.20;;
59093;SDS011;44880;52.814;18.270;2023-03-01T10:43:59;28.10;;;15.90;;
59093;SDS011;44880;52.814;18.270;2023-03-01T10:46:37;27.90;;;16.00;;
59093;SDS011;44880;52.814;18.270;2023-03-01T10:49:20;26.50;;;15.60;;
59093;SDS011;44880;52.814;18.270;2023-03-01T10:51:52;28.20;;;15.80;;
59093;SDS011;44880;52.814;18.270;2023-03-01T10:54:30;30.50;;;16.70;;
59093;SDS011;44880;52.814;18.270;2023-03-01T10:57:01;28.70;;;17.80;;
59093;SDS011;44880;52.814;18.270;2023-03-01T10:59:33;30.10;;;16.90;;
59093;SDS011;44880;52.814;18.270;2023-03-01T11:05:20;37.00;;;19.60;;
59093;SDS011;44880;52.814;18.270;2023-03-01T11:07:58;33.30;;;22.10;;
59093;SDS011;44880;52.814;18.270;2023-03-01T11:10:35;46.40;;;29.70;;
59093;SDS011;44880;52.814;18.270;2023-03-01T11:13:24;41.60;;;25.80;;
59093;SDS011;44880;52.814;18.270;2023-03-01T11:15:59;47.20;;;30.90;;
59093;SDS011;44880;52.814;18.270;2023-03-01T11:21:42;30.40;;;18.90;;
59093;SDS011;44880;52.814;18.270;2023-03-01T11:24:26;30.80;;;18.70;;
59093;SDS011;44880;52.814;18.270;2023-03-01T11:26:59;30.50;;;17.10;;
59093;SDS011;44880;52.814;18.270;2023-03-01T11:29:51;29.70;;;16.80;;
59093;SDS011;44880;52.814;18.270;2023-03-01T11:32:35;34.80;;;20.50;;
59093;SDS011;44880;52.814;18.270;2023-03-01T11:35:19;37.90;;;22.30;;
59093;SDS011;44880;52.814;18.270;2023-03-01T11:37:58;35.00;;;20.40;;
59093;SDS011;44880;52.814;18.270;2023-03-01T11:40:39;30.60;;;19.00;;
59093;SDS011;44880;52.814;18.270;2023-03-01T11:43:26;29.70;;;18.60;;
59093;SDS011;44880;52.814;18.270;2023-03-01T11:49:12;31.00;;;19.20;;
59093;SDS011;44880;52.814;18.270;2023-03-01T11:51:55;31.80;;;19.50;;
59093;SDS011;44880;52.814;18.270;2023-03-01T11:54:35;31.40;;;20.00;;
59093;SDS011;44880;52.814;18.270;2023-03-01T11:57:25;44.00;;;24.70;;
59093;SDS011;44880;52.814;18.270;2023-03-01T12:00:24;39.20;;;24.90;;
59093;SDS011;44880;52.814;18.270;2023-03-01T12:12:05;33.20;;;20.70;;
59093;SDS011;44880;52.814;18.270;2023-03-01T12:14:54;39.30;;;22.40;;
59093;SDS011;44880;52.814;18.270;2023-03-01T12:17:59;32.60;;;20.40;;
59093;SDS011;44880;52.814;18.270;2023-03-01T12:20:45;37.80;;;22.50;;
59093;SDS011;44880;52.814;18.270;2023-03-01T12:26:52;31.10;;;19.70;;
59093;SDS011;44880;52.814;18.270;2023-03-01T12:29:41;36.20;;;22.10;;
59093;SDS011;44880;52.814;18.270;2023-03-01T12:32:28;25.00;;;15.20;;
59093;SDS011;44880;52.814;18.270;2023-03-01T12:35:23;31.60;;;18.40;;
59093;SDS011;44880;52.814;18.270;2023-03-01T12:38:17;28.20;;;17.20;;
59093;SDS011;44880;52.814;18.270;2023-03-01T12:44:21;25.10;;;15.00;;
59093;SDS011;44880;52.814;18.270;2023-03-01T12:47:02;24.60;;;13.80;;
59093;SDS011;44880;52.814;18.270;2023-03-01T12:49:49;23.20;;;12.70;;
59093;SDS011;44880;52.814;18.270;2023-03-01T12:52:27;27.10;;;16.20;;
59093;SDS011;44880;52.814;18.270;2023-03-01T12:55:18;28.90;;;16.30;;
59093;SDS011;44880;52.814;18.270;2023-03-01T12:57:54;26.90;;;15.20;;
59093;SDS011;44880;52.814;18.270;2023-03-01T13:03:19;25.10;;;14.20;;
59093;SDS011;44880;52.814;18.270;2023-03-01T13:06:07;26.30;;;13.40;;
59093;SDS011;44880;52.814;18.270;2023-03-01T13:08:46;23.40;;;13.10;;
59093;SDS011;44880;52.814;18.270;2023-03-01T13:11:23;25.40;;;14.10;;
59093;SDS011;44880;52.814;18.270;2023-03-01T13:17:03;22.30;;;12.70;;
59093;SDS011;44880;52.814;18.270;2023-03-01T13:19:57;21.10;;;11.60;;
59093;SDS011;44880;52.814;18.270;2023-03-01T13:22:35;22.10;;;12.40;;
59093;SDS011;44880;52.814;18.270;2023-03-01T13:25:14;23.50;;;12.50;;
59093;SDS011;44880;52.814;18.270;2023-03-01T13:28:42;21.80;;;12.40;;
59093;SDS011;44880;52.814;18.270;2023-03-01T13:34:44;21.60;;;12.90;;
59093;SDS011;44880;52.814;18.270;2023-03-01T13:37:37;22.20;;;12.50;;
59093;SDS011;44880;52.814;18.270;2023-03-01T13:43:32;24.40;;;14.10;;
59093;SDS011;44880;52.814;18.270;2023-03-01T13:46:09;24.00;;;13.20;;
59093;SDS011;44880;52.814;18.270;2023-03-01T13:48:50;23.80;;;15.60;;
59093;SDS011;44880;52.814;18.270;2023-03-01T13:51:23;28.00;;;16.30;;
59093;SDS011;44880;52.814;18.270;2023-03-01T13:53:59;31.40;;;19.60;;
59093;SDS011;44880;52.814;18.270;2023-03-01T13:56:33;30.80;;;18.20;;
59093;SDS011;44880;52.814;18.270;2023-03-01T13:59:05;36.50;;;20.90;;
59093;SDS011;44880;52.814;18.270;2023-03-01T14:01:52;28.20;;;17.00;;
59093;SDS011;44880;52.814;18.270;2023-03-01T14:04:24;39.60;;;20.00;;
59093;SDS011;44880;52.814;18.270;2023-03-01T14:09:56;30.40;;;18.20;;
59093;SDS011;44880;52.814;18.270;2023-03-01T14:12:39;25.80;;;16.40;;
59093;SDS011;44880;52.814;18.270;2023-03-01T14:15:15;50.60;;;26.60;;
59093;SDS011;44880;52.814;18.270;2023-03-01T14:17:55;47.70;;;25.10;;
59093;SDS011;44880;52.814;18.270;2023-03-01T14:20:38;28.30;;;16.90;;
59093;SDS011;44880;52.814;18.270;2023-03-01T14:23:10;28.40;;;17.00;;
59093;SDS011;44880;52.814;18.270;2023-03-01T14:25:47;32.70;;;18.20;;
59093;SDS011;44880;52.814;18.270;2023-03-01T14:28:19;26.00;;;15.90;;
59093;SDS011;44880;52.814;18.270;2023-03-01T14:31:01;27.80;;;17.70;;
59093;SDS011;44880;52.814;18.270;2023-03-01T14:33:57;22.50;;;13.80;;
59093;SDS011;44880;52.814;18.270;2023-03-01T14:36:38;24.00;;;14.30;;
59093;SDS011;44880;52.814;18.270;2023-03-01T14:39:22;25.10;;;13.30;;
59093;SDS011;44880;52.814;18.270;2023-03-01T14:42:06;24.90;;;13.70;;
59093;SDS011;44880;52.814;18.270;2023-03-01T14:44:54;24.00;;;13.40;;
59093;SDS011;44880;52.814;18.270;2023-03-01T14:50:15;22.30;;;12.70;;
59093;SDS011;44880;52.814;18.270;2023-03-01T14:52:58;22.80;;;12.70;;
59093;SDS011;44880;52.814;18.270;2023-03-01T14:55:32;21.90;;;12.90;;
59093;SDS011;44880;52.814;18.270;2023-03-01T14:58:06;20.80;;;12.30;;
59093;SDS011;44880;52.814;18.270;2023-03-01T15:00:59;20.90;;;11.80;;
59093;SDS011;44880;52.814;18.270;2023-03-01T15:04:06;21.10;;;11.70;;
59093;SDS011;44880;52.814;18.270;2023-03-01T15:06:54;19.50;;;11.90;;
59093;SDS011;44880;52.814;18.270;2023-03-01T15:09:39;20.60;;;11.40;;
59093;SDS011;44880;52.814;18.270;2023-03-01T15:18:05;22.40;;;13.00;;
59093;SDS011;44880;52.814;18.270;2023-03-01T15:20:46;22.00;;;12.60;;
59093;SDS011;44880;52.814;18.270;2023-03-01T15:23:29;21.40;;;12.70;;
59093;SDS011;44880;52.814;18.270;2023-03-01T15:26:17;23.60;;;12.60;;
59093;SDS011;44880;52.814;18.270;2023-03-01T15:29:00;23.50;;;11.20;;
59093;SDS011;44880;52.814;18.270;2023-03-01T15:31:35;17.60;;;10.20;;
59093;SDS011;44880;52.814;18.270;2023-03-01T15:34:19;19.90;;;10.00;;
59093;SDS011;44880;52.814;18.270;2023-03-01T15:36:54;17.30;;;9.00;;
59093;SDS011;44880;52.814;18.270;2023-03-01T15:39:45;15.60;;;8.30;;
59093;SDS011;44880;52.814;18.270;2023-03-01T15:42:37;20.50;;;10.40;;
59093;SDS011;44880;52.814;18.270;2023-03-01T15:45:10;18.50;;;9.90;;
59093;SDS011;44880;52.814;18.270;2023-03-01T15:47:56;19.30;;;9.90;;
59093;SDS011;44880;52.814;18.270;2023-03-01T15:50:32;21.50;;;11.00;;
59093;SDS011;44880;52.814;18.270;2023-03-01T15:53:25;21.80;;;10.40;;
59093;SDS011;44880;52.814;18.270;2023-03-01T15:59:03;20.50;;;10.00;;
59093;SDS011;44880;52.814;18.270;2023-03-01T16:01:46;23.00;;;13.60;;
59093;SDS011;44880;52.814;18.270;2023-03-01T16:04:26;24.30;;;13.60;;
59093;SDS011;44880;52.814;18.270;2023-03-01T16:06:56;23.70;;;13.10;;
59093;SDS011;44880;52.814;18.270;2023-03-01T16:12:35;32.20;;;16.70;;